sensor_id;sensor_type;location;lat;lon;timestamp;P1;durP1;ratioP1;P2;durP2;ratioP2
62153;SDS011;48140;45.486;9.226;2022-12-24T00:01:00;46.15;;;23.67;;
62153;SDS011;48140;45.486;9.226;2022-12-24T00:03:26;38.78;;;21.95;;
62153;SDS011;48140;45.486;9.226;2022-12-24T00:05:52;43.17;;;24.17;;
62153;SDS011;48140;45.486;9.226;2022-12-24T00:08:17;44.55;;;23.00;;
62153;SDS011;48140;45.486;9.226;2022-12-24T00:10:43;49.35;;;23.63;;
62153;SDS011;48140;45.486;9.226;2022-12-24T00:13:12;43.35;;;23.08;;
62153;SDS011;48140;45.486;9.226;2022-12-24T00:15:38;42.53;;;23.20;;
62153;SDS011;48140;45.486;9.226;2022-12-24T00:18:03;40.78;;;22.45;;
62153;SDS011;48140;45.486;9.226;2022-12-24T00:20:29;57.17;;;24.40;;
62153;SDS011;48140;45.486;9.226;2022-12-24T00:22:55;44.25;;;22.55;;
62153;SDS011;48140;45.486;9.226;2022-12-24T00:25:20;48.35;;;24.00;;
62153;SDS011;48140;45.486;9.226;2022-12-24T00:27:46;45.40;;;24.85;;
62153;SDS011;48140;45.486;9.226;2022-12-24T00:30:11;46.30;;;23.35;;
62153;SDS011;48140;45.486;9.226;2022-12-24T00:32:37;43.30;;;23.40;;
62153;SDS011;48140;45.486;9.226;2022-12-24T00:35:03;41.20;;;23.75;;
62153;SDS011;48140;45.486;9.226;2022-12-24T00:37:28;42.33;;;23.42;;
62153;SDS011;48140;45.486;9.226;2022-12-24T00:39:54;44.42;;;22.35;;
62153;SDS011;48140;45.486;9.226;2022-12-24T00:42:20;36.90;;;21.38;;
62153;SDS011;48140;45.486;9.226;2022-12-24T00:44:45;42.97;;;23.50;;
62153;SDS011;48140;45.486;9.226;2022-12-24T00:47:11;48.08;;;24.73;;
62153;SDS011;48140;45.486;9.226;2022-12-24T00:49:37;42.58;;;23.00;;
62153;SDS011;48140;45.486;9.226;2022-12-24T00:52:03;49.53;;;23.90;;
62153;SDS011;48140;45.486;9.226;2022-12-24T00:54:29;46.47;;;23.00;;
62153;SDS011;48140;45.486;9.226;2022-12-24T00:56:54;43.10;;;23.70;;
62153;SDS011;48140;45.486;9.226;2022-12-24T00:59:20;44.70;;;23.30;;
62153;SDS011;48140;45.486;9.226;2022-12-24T01:01:45;44.22;;;24.13;;
62153;SDS011;48140;45.486;9.226;2022-12-24T01:04:11;43.45;;;22.10;;
62153;SDS011;48140;45.486;9.226;2022-12-24T01:06:55;46.70;;;22.85;;
62153;SDS011;48140;45.486;9.226;2022-12-24T01:09:21;47.40;;;23.55;;
62153;SDS011;48140;45.486;9.226;2022-12-24T01:11:46;45.97;;;22.73;;
62153;SDS011;48140;45.486;9.226;2022-12-24T01:14:12;52.80;;;21.77;;
62153;SDS011;48140;45.486;9.226;2022-12-24T01:16:41;47.90;;;23.35;;
62153;SDS011;48140;45.486;9.226;2022-12-24T01:19:06;45.17;;;24.25;;
62153;SDS011;48140;45.486;9.226;2022-12-24T01:21:32;46.58;;;21.90;;
62153;SDS011;48140;45.486;9.226;2022-12-24T01:23:58;48.88;;;23.75;;
62153;SDS011;48140;45.486;9.226;2022-12-24T01:26:24;44.75;;;23.23;;
62153;SDS011;48140;45.486;9.226;2022-12-24T01:28:49;39.50;;;23.30;;
62153;SDS011;48140;45.486;9.226;2022-12-24T01:31:15;41.30;;;22.33;;
62153;SDS011;48140;45.486;9.226;2022-12-24T01:33:42;42.63;;;22.50;;
62153;SDS011;48140;45.486;9.226;2022-12-24T01:36:10;48.03;;;24.92;;
62153;SDS011;48140;45.486;9.226;2022-12-24T01:38:36;42.28;;;22.23;;
62153;SDS011;48140;45.486;9.226;2022-12-24T01:41:02;46.75;;;23.42;;
62153;SDS011;48140;45.486;9.226;2022-12-24T01:43:46;50.63;;;23.90;;
62153;SDS011;48140;45.486;9.226;2022-12-24T01:46:19;48.63;;;24.52;;
62153;SDS011;48140;45.486;9.226;2022-12-24T01:48:54;48.42;;;23.40;;
62153;SDS011;48140;45.486;9.226;2022-12-24T01:54:17;47.78;;;23.27;;
62153;SDS011;48140;45.486;9.226;2022-12-24T01:56:59;40.78;;;22.85;;
62153;SDS011;48140;45.486;9.226;2022-12-24T01:59:28;43.95;;;22.63;;
62153;SDS011;48140;45.486;9.226;2022-12-24T02:01:54;46.03;;;22.98;;
62153;SDS011;48140;45.486;9.226;2022-12-24T02:07:03;45.58;;;23.70;;
62153;SDS011;48140;45.486;9.226;2022-12-24T02:09:29;52.45;;;23.90;;
62153;SDS011;48140;45.486;9.226;2022-12-24T02:11:56;44.30;;;23.85;;
62153;SDS011;48140;45.486;9.226;2022-12-24T02:14:22;53.15;;;24.85;;
62153;SDS011;48140;45.486;9.226;2022-12-24T02:26:01;50.00;;;23.77;;
62153;SDS011;48140;45.486;9.226;2022-12-24T02:28:41;49.20;;;22.30;;
62153;SDS011;48140;45.486;9.226;2022-12-24T02:31:38;44.65;;;22.23;;
62153;SDS011;48140;45.486;9.226;2022-12-24T02:35:15;46.38;;;23.60;;
62153;SDS011;48140;45.486;9.226;2022-12-24T02:37:20;46.92;;;23.27;;
62153;SDS011;48140;45.486;9.226;2022-12-24T02:39:54;50.38;;;22.95;;
62153;SDS011;48140;45.486;9.226;2022-12-24T02:42:30;48.70;;;23.20;;
62153;SDS011;48140;45.486;9.226;2022-12-24T02:45:35;51.30;;;23.88;;
62153;SDS011;48140;45.486;9.226;2022-12-24T02:47:55;44.35;;;23.45;;
62153;SDS011;48140;45.486;9.226;2022-12-24T02:50:22;51.10;;;24.33;;
62153;SDS011;48140;45.486;9.226;2022-12-24T02:52:48;41.08;;;21.95;;
62153;SDS011;48140;45.486;9.226;2022-12-24T02:55:18;49.22;;;23.23;;
62153;SDS011;48140;45.486;9.226;2022-12-24T03:09:19;43.33;;;22.48;;
62153;SDS011;48140;45.486;9.226;2022-12-24T03:11:53;45.80;;;22.98;;
62153;SDS011;48140;45.486;9.226;2022-12-24T03:14:42;36.83;;;20.63;;
62153;SDS011;48140;45.486;9.226;2022-12-24T03:17:09;48.97;;;23.33;;
62153;SDS011;48140;45.486;9.226;2022-12-24T03:19:35;46.78;;;23.17;;
62153;SDS011;48140;45.486;9.226;2022-12-24T03:22:02;56.47;;;23.80;;
62153;SDS011;48140;45.486;9.226;2022-12-24T03:24:31;45.20;;;23.10;;
62153;SDS011;48140;45.486;9.226;2022-12-24T03:26:59;47.70;;;23.10;;
62153;SDS011;48140;45.486;9.226;2022-12-24T03:29:26;44.58;;;23.58;;
62153;SDS011;48140;45.486;9.226;2022-12-24T03:31:52;46.47;;;22.65;;
62153;SDS011;48140;45.486;9.226;2022-12-24T03:34:25;45.28;;;22.48;;
62153;SDS011;48140;45.486;9.226;2022-12-24T03:36:50;39.95;;;21.50;;
62153;SDS011;48140;45.486;9.226;2022-12-24T03:39:16;48.38;;;23.52;;
62153;SDS011;48140;45.486;9.226;2022-12-24T03:41:42;48.15;;;22.35;;
62153;SDS011;48140;45.486;9.226;2022-12-24T03:44:07;47.45;;;23.48;;
62153;SDS011;48140;45.486;9.226;2022-12-24T03:46:33;46.55;;;23.90;;
62153;SDS011;48140;45.486;9.226;2022-12-24T03:48:59;45.10;;;23.60;;
62153;SDS011;48140;45.486;9.226;2022-12-24T03:51:24;40.20;;;20.83;;
62153;SDS011;48140;45.486;9.226;2022-12-24T03:53:51;47.53;;;23.40;;
62153;SDS011;48140;45.486;9.226;2022-12-24T03:56:17;51.65;;;24.02;;
62153;SDS011;48140;45.486;9.226;2022-12-24T03:58:43;43.85;;;21.17;;
62153;SDS011;48140;45.486;9.226;2022-12-24T04:01:09;46.38;;;23.13;;
62153;SDS011;48140;45.486;9.226;2022-12-24T04:03:34;48.38;;;22.35;;
62153;SDS011;48140;45.486;9.226;2022-12-24T04:06:10;44.70;;;23.42;;
62153;SDS011;48140;45.486;9.226;2022-12-24T04:08:37;38.85;;;21.83;;
62153;SDS011;48140;45.486;9.226;2022-12-24T04:11:04;45.85;;;23.23;;
62153;SDS011;48140;45.486;9.226;2022-12-24T04:13:31;44.83;;;22.70;;
62153;SDS011;48140;45.486;9.226;2022-12-24T04:18:33;43.92;;;21.30;;
62153;SDS011;48140;45.486;9.226;2022-12-24T04:21:00;41.13;;;22.98;;
62153;SDS011;48140;45.486;9.226;2022-12-24T04:23:25;42.88;;;21.88;;
62153;SDS011;48140;45.486;9.226;2022-12-24T04:25:53;51.03;;;22.92;;
62153;SDS011;48140;45.486;9.226;2022-12-24T04:28:19;42.97;;;23.60;;
62153;SDS011;48140;45.486;9.226;2022-12-24T04:30:45;39.63;;;21.08;;
62153;SDS011;48140;45.486;9.226;2022-12-24T04:33:11;48.55;;;20.52;;
62153;SDS011;48140;45.486;9.226;2022-12-24T04:35:39;39.50;;;22.40;;
62153;SDS011;48140;45.486;9.226;2022-12-24T04:38:06;44.35;;;23.50;;
62153;SDS011;48140;45.486;9.226;2022-12-24T04:40:32;40.83;;;21.85;;
62153;SDS011;48140;45.486;9.226;2022-12-24T04:42:58;39.03;;;20.42;;
62153;SDS011;48140;45.486;9.226;2022-12-24T04:45:24;42.20;;;21.80;;
62153;SDS011;48140;45.486;9.226;2022-12-24T04:47:49;37.47;;;20.95;;
62153;SDS011;48140;45.486;9.226;2022-12-24T04:50:15;40.55;;;22.10;;
62153;SDS011;48140;45.486;9.226;2022-12-24T04:52:41;46.65;;;22.40;;
62153;SDS011;48140;45.486;9.226;2022-12-24T04:55:06;46.50;;;22.20;;
62153;SDS011;48140;45.486;9.226;2022-12-24T04:57:32;44.25;;;21.38;;
62153;SDS011;48140;45.486;9.226;2022-12-24T05:00:00;47.80;;;22.90;;
62153;SDS011;48140;45.486;9.226;2022-12-24T05:02:26;44.28;;;23.40;;
62153;SDS011;48140;45.486;9.226;2022-12-24T05:04:52;49.22;;;23.13;;
62153;SDS011;48140;45.486;9.226;2022-12-24T05:07:17;48.03;;;23.50;;
62153;SDS011;48140;45.486;9.226;2022-12-24T05:09:43;46.42;;;22.80;;
62153;SDS011;48140;45.486;9.226;2022-12-24T05:12:09;49.03;;;24.45;;
62153;SDS011;48140;45.486;9.226;2022-12-24T05:14:34;43.35;;;22.63;;
62153;SDS011;48140;45.486;9.226;2022-12-24T05:17:00;49.83;;;23.33;;
62153;SDS011;48140;45.486;9.226;2022-12-24T05:19:26;46.67;;;22.90;;
62153;SDS011;48140;45.486;9.226;2022-12-24T05:21:51;44.15;;;22.38;;
62153;SDS011;48140;45.486;9.226;2022-12-24T05:24:43;43.05;;;21.90;;
62153;SDS011;48140;45.486;9.226;2022-12-24T05:27:27;46.08;;;23.50;;
62153;SDS011;48140;45.486;9.226;2022-12-24T05:29:53;45.33;;;22.67;;
62153;SDS011;48140;45.486;9.226;2022-12-24T05:32:19;37.90;;;21.45;;
62153;SDS011;48140;45.486;9.226;2022-12-24T05:34:45;51.35;;;21.70;;
62153;SDS011;48140;45.486;9.226;2022-12-24T05:37:10;50.15;;;21.88;;
62153;SDS011;48140;45.486;9.226;2022-12-24T05:39:36;40.75;;;22.55;;
62153;SDS011;48140;45.486;9.226;2022-12-24T05:42:02;38.28;;;22.52;;
62153;SDS011;48140;45.486;9.226;2022-12-24T05:44:27;50.85;;;23.48;;
62153;SDS011;48140;45.486;9.226;2022-12-24T05:46:53;46.47;;;21.85;;
62153;SDS011;48140;45.486;9.226;2022-12-24T05:49:18;46.53;;;22.00;;
62153;SDS011;48140;45.486;9.226;2022-12-24T05:51:44;46.75;;;23.77;;
62153;SDS011;48140;45.486;9.226;2022-12-24T05:54:10;47.30;;;22.73;;
62153;SDS011;48140;45.486;9.226;2022-12-24T05:56:36;44.20;;;21.65;;
62153;SDS011;48140;45.486;9.226;2022-12-24T05:59:02;35.72;;;21.45;;
62153;SDS011;48140;45.486;9.226;2022-12-24T06:01:28;42.95;;;22.25;;
62153;SDS011;48140;45.486;9.226;2022-12-24T06:03:55;42.70;;;22.02;;
62153;SDS011;48140;45.486;9.226;2022-12-24T06:06:22;46.97;;;23.05;;
62153;SDS011;48140;45.486;9.226;2022-12-24T06:08:50;46.90;;;22.67;;
62153;SDS011;48140;45.486;9.226;2022-12-24T06:11:21;54.13;;;21.95;;
62153;SDS011;48140;45.486;9.226;2022-12-24T06:16:34;46.20;;;22.23;;
62153;SDS011;48140;45.486;9.226;2022-12-24T06:19:05;43.13;;;21.92;;
62153;SDS011;48140;45.486;9.226;2022-12-24T06:21:34;47.60;;;21.95;;
62153;SDS011;48140;45.486;9.226;2022-12-24T06:24:04;48.40;;;23.77;;
62153;SDS011;48140;45.486;9.226;2022-12-24T06:26:30;42.63;;;22.83;;
62153;SDS011;48140;45.486;9.226;2022-12-24T06:28:55;52.47;;;22.85;;
62153;SDS011;48140;45.486;9.226;2022-12-24T06:31:21;43.50;;;22.90;;
62153;SDS011;48140;45.486;9.226;2022-12-24T06:33:47;43.35;;;22.15;;
62153;SDS011;48140;45.486;9.226;2022-12-24T06:36:15;53.58;;;23.33;;
62153;SDS011;48140;45.486;9.226;2022-12-24T06:38:42;45.67;;;22.58;;
62153;SDS011;48140;45.486;9.226;2022-12-24T06:41:08;44.95;;;23.50;;
62153;SDS011;48140;45.486;9.226;2022-12-24T06:43:34;40.95;;;22.10;;
62153;SDS011;48140;45.486;9.226;2022-12-24T06:46:00;57.50;;;24.10;;
62153;SDS011;48140;45.486;9.226;2022-12-24T06:48:26;44.80;;;21.98;;
62153;SDS011;48140;45.486;9.226;2022-12-24T06:50:52;46.05;;;23.27;;
62153;SDS011;48140;45.486;9.226;2022-12-24T06:53:18;50.97;;;22.58;;
62153;SDS011;48140;45.486;9.226;2022-12-24T06:55:43;48.17;;;23.17;;
62153;SDS011;48140;45.486;9.226;2022-12-24T06:58:09;47.40;;;22.75;;
62153;SDS011;48140;45.486;9.226;2022-12-24T07:00:35;44.42;;;22.58;;
62153;SDS011;48140;45.486;9.226;2022-12-24T07:03:01;41.95;;;22.02;;
62153;SDS011;48140;45.486;9.226;2022-12-24T07:05:26;49.38;;;22.35;;
62153;SDS011;48140;45.486;9.226;2022-12-24T07:07:52;50.78;;;23.13;;
62153;SDS011;48140;45.486;9.226;2022-12-24T07:10:18;45.42;;;22.20;;
62153;SDS011;48140;45.486;9.226;2022-12-24T07:12:45;46.53;;;21.65;;
62153;SDS011;48140;45.486;9.226;2022-12-24T07:15:11;46.58;;;21.80;;
62153;SDS011;48140;45.486;9.226;2022-12-24T07:17:38;51.80;;;22.30;;
62153;SDS011;48140;45.486;9.226;2022-12-24T07:20:04;47.83;;;22.10;;
62153;SDS011;48140;45.486;9.226;2022-12-24T07:22:31;53.17;;;22.00;;
62153;SDS011;48140;45.486;9.226;2022-12-24T07:24:57;50.80;;;22.95;;
62153;SDS011;48140;45.486;9.226;2022-12-24T07:27:25;45.53;;;21.98;;
62153;SDS011;48140;45.486;9.226;2022-12-24T07:29:51;50.53;;;20.35;;
62153;SDS011;48140;45.486;9.226;2022-12-24T07:32:16;48.28;;;20.38;;
62153;SDS011;48140;45.486;9.226;2022-12-24T07:34:44;47.83;;;21.15;;
62153;SDS011;48140;45.486;9.226;2022-12-24T07:37:10;53.92;;;22.23;;
62153;SDS011;48140;45.486;9.226;2022-12-24T07:39:36;45.67;;;22.58;;
62153;SDS011;48140;45.486;9.226;2022-12-24T07:42:01;40.10;;;20.67;;
62153;SDS011;48140;45.486;9.226;2022-12-24T07:44:29;44.17;;;21.83;;
62153;SDS011;48140;45.486;9.226;2022-12-24T07:46:55;46.17;;;21.33;;
62153;SDS011;48140;45.486;9.226;2022-12-24T07:49:20;47.42;;;22.88;;
62153;SDS011;48140;45.486;9.226;2022-12-24T07:51:46;46.38;;;20.90;;
62153;SDS011;48140;45.486;9.226;2022-12-24T07:54:12;44.30;;;21.98;;
62153;SDS011;48140;45.486;9.226;2022-12-24T07:56:37;41.05;;;20.00;;
62153;SDS011;48140;45.486;9.226;2022-12-24T07:59:03;46.67;;;22.35;;
62153;SDS011;48140;45.486;9.226;2022-12-24T08:01:29;40.08;;;20.63;;
62153;SDS011;48140;45.486;9.226;2022-12-24T08:03:57;40.17;;;20.00;;
62153;SDS011;48140;45.486;9.226;2022-12-24T08:06:23;53.85;;;21.20;;
62153;SDS011;48140;45.486;9.226;2022-12-24T08:08:49;42.17;;;20.27;;
62153;SDS011;48140;45.486;9.226;2022-12-24T08:11:14;51.65;;;21.70;;
62153;SDS011;48140;45.486;9.226;2022-12-24T08:13:40;44.55;;;20.58;;
62153;SDS011;48140;45.486;9.226;2022-12-24T08:16:06;48.25;;;21.73;;
62153;SDS011;48140;45.486;9.226;2022-12-24T08:18:32;49.47;;;22.73;;
62153;SDS011;48140;45.486;9.226;2022-12-24T08:20:58;45.08;;;20.20;;
62153;SDS011;48140;45.486;9.226;2022-12-24T08:23:23;40.38;;;20.75;;
62153;SDS011;48140;45.486;9.226;2022-12-24T08:25:49;46.20;;;22.15;;
62153;SDS011;48140;45.486;9.226;2022-12-24T08:28:15;50.53;;;20.85;;
62153;SDS011;48140;45.486;9.226;2022-12-24T08:30:43;44.35;;;21.85;;
62153;SDS011;48140;45.486;9.226;2022-12-24T08:33:08;42.35;;;21.25;;
62153;SDS011;48140;45.486;9.226;2022-12-24T08:35:35;42.72;;;22.05;;
62153;SDS011;48140;45.486;9.226;2022-12-24T08:38:00;44.85;;;21.67;;
62153;SDS011;48140;45.486;9.226;2022-12-24T08:40:26;43.85;;;21.77;;
62153;SDS011;48140;45.486;9.226;2022-12-24T08:42:52;40.53;;;22.33;;
62153;SDS011;48140;45.486;9.226;2022-12-24T08:45:17;50.30;;;23.33;;
62153;SDS011;48140;45.486;9.226;2022-12-24T08:47:43;43.22;;;20.90;;
62153;SDS011;48140;45.486;9.226;2022-12-24T08:50:09;44.47;;;21.63;;
62153;SDS011;48140;45.486;9.226;2022-12-24T08:52:36;42.28;;;21.00;;
62153;SDS011;48140;45.486;9.226;2022-12-24T08:55:01;52.00;;;22.40;;
62153;SDS011;48140;45.486;9.226;2022-12-24T08:57:27;40.65;;;20.85;;
62153;SDS011;48140;45.486;9.226;2022-12-24T08:59:53;48.03;;;22.23;;
62153;SDS011;48140;45.486;9.226;2022-12-24T09:02:18;41.10;;;20.75;;
62153;SDS011;48140;45.486;9.226;2022-12-24T09:04:44;41.78;;;20.75;;
62153;SDS011;48140;45.486;9.226;2022-12-24T09:07:10;40.03;;;20.00;;
62153;SDS011;48140;45.486;9.226;2022-12-24T09:09:36;45.38;;;20.83;;
62153;SDS011;48140;45.486;9.226;2022-12-24T09:12:05;47.50;;;22.02;;
62153;SDS011;48140;45.486;9.226;2022-12-24T09:14:31;47.97;;;22.80;;
62153;SDS011;48140;45.486;9.226;2022-12-24T09:16:57;37.30;;;22.00;;
62153;SDS011;48140;45.486;9.226;2022-12-24T09:19:23;42.08;;;21.05;;
62153;SDS011;48140;45.486;9.226;2022-12-24T09:21:49;41.45;;;20.08;;
62153;SDS011;48140;45.486;9.226;2022-12-24T09:24:15;44.08;;;22.67;;
62153;SDS011;48140;45.486;9.226;2022-12-24T09:26:41;44.45;;;20.77;;
62153;SDS011;48140;45.486;9.226;2022-12-24T09:29:07;40.72;;;20.23;;
62153;SDS011;48140;45.486;9.226;2022-12-24T09:31:34;45.53;;;21.10;;
62153;SDS011;48140;45.486;9.226;2022-12-24T09:34:00;41.33;;;20.38;;
62153;SDS011;48140;45.486;9.226;2022-12-24T09:36:26;42.97;;;20.30;;
62153;SDS011;48140;45.486;9.226;2022-12-24T09:38:52;40.00;;;20.70;;
62153;SDS011;48140;45.486;9.226;2022-12-24T09:46:54;47.33;;;20.83;;
62153;SDS011;48140;45.486;9.226;2022-12-24T09:49:24;41.50;;;21.02;;
62153;SDS011;48140;45.486;9.226;2022-12-24T09:51:59;44.03;;;21.02;;
62153;SDS011;48140;45.486;9.226;2022-12-24T09:54:37;44.17;;;22.33;;
62153;SDS011;48140;45.486;9.226;2022-12-24T09:57:11;41.35;;;21.20;;
62153;SDS011;48140;45.486;9.226;2022-12-24T09:59:44;45.17;;;21.33;;
62153;SDS011;48140;45.486;9.226;2022-12-24T10:02:12;44.75;;;21.70;;
62153;SDS011;48140;45.486;9.226;2022-12-24T10:04:39;49.80;;;23.27;;
62153;SDS011;48140;45.486;9.226;2022-12-24T10:07:10;37.80;;;21.05;;
62153;SDS011;48140;45.486;9.226;2022-12-24T10:10:24;41.92;;;21.15;;
62153;SDS011;48140;45.486;9.226;2022-12-24T10:13:06;39.75;;;19.60;;
62153;SDS011;48140;45.486;9.226;2022-12-24T10:15:38;51.22;;;20.70;;
62153;SDS011;48140;45.486;9.226;2022-12-24T10:18:34;41.20;;;19.58;;
62153;SDS011;48140;45.486;9.226;2022-12-24T10:24:20;41.03;;;20.38;;
62153;SDS011;48140;45.486;9.226;2022-12-24T10:26:56;42.78;;;20.17;;
62153;SDS011;48140;45.486;9.226;2022-12-24T10:29:30;46.90;;;20.75;;
62153;SDS011;48140;45.486;9.226;2022-12-24T10:34:32;36.92;;;18.92;;
62153;SDS011;48140;45.486;9.226;2022-12-24T10:37:05;37.00;;;18.63;;
62153;SDS011;48140;45.486;9.226;2022-12-24T10:39:34;43.33;;;21.48;;
62153;SDS011;48140;45.486;9.226;2022-12-24T10:42:00;34.35;;;18.90;;
62153;SDS011;48140;45.486;9.226;2022-12-24T10:44:26;44.03;;;19.98;;
62153;SDS011;48140;45.486;9.226;2022-12-24T10:46:55;43.67;;;20.67;;
62153;SDS011;48140;45.486;9.226;2022-12-24T10:49:35;41.30;;;21.17;;
62153;SDS011;48140;45.486;9.226;2022-12-24T10:52:11;43.70;;;19.50;;
62153;SDS011;48140;45.486;9.226;2022-12-24T10:57:46;47.08;;;19.33;;
62153;SDS011;48140;45.486;9.226;2022-12-24T11:00:29;35.45;;;18.55;;
62153;SDS011;48140;45.486;9.226;2022-12-24T11:05:36;41.08;;;18.48;;
62153;SDS011;48140;45.486;9.226;2022-12-24T11:08:13;46.60;;;19.83;;
62153;SDS011;48140;45.486;9.226;2022-12-24T11:10:43;46.30;;;19.88;;
62153;SDS011;48140;45.486;9.226;2022-12-24T11:13:28;38.22;;;18.92;;
62153;SDS011;48140;45.486;9.226;2022-12-24T11:16:38;41.67;;;18.92;;
62153;SDS011;48140;45.486;9.226;2022-12-24T11:18:51;45.60;;;19.40;;
62153;SDS011;48140;45.486;9.226;2022-12-24T11:21:20;39.42;;;18.75;;
62153;SDS011;48140;45.486;9.226;2022-12-24T11:23:55;37.08;;;18.55;;
62153;SDS011;48140;45.486;9.226;2022-12-24T11:26:24;44.40;;;18.75;;
62153;SDS011;48140;45.486;9.226;2022-12-24T11:31:33;45.22;;;20.42;;
62153;SDS011;48140;45.486;9.226;2022-12-24T11:34:03;44.40;;;18.92;;
62153;SDS011;48140;45.486;9.226;2022-12-24T11:36:43;47.45;;;20.17;;
62153;SDS011;48140;45.486;9.226;2022-12-24T11:39:13;44.78;;;21.02;;
62153;SDS011;48140;45.486;9.226;2022-12-24T11:41:47;45.35;;;20.05;;
62153;SDS011;48140;45.486;9.226;2022-12-24T11:44:15;45.92;;;21.70;;
62153;SDS011;48140;45.486;9.226;2022-12-24T11:46:50;44.03;;;20.45;;
62153;SDS011;48140;45.486;9.226;2022-12-24T11:49:27;41.80;;;19.17;;
62153;SDS011;48140;45.486;9.226;2022-12-24T11:52:00;50.65;;;20.33;;
62153;SDS011;48140;45.486;9.226;2022-12-24T11:54:28;45.25;;;21.05;;
62153;SDS011;48140;45.486;9.226;2022-12-24T11:56:58;40.97;;;20.88;;
62153;SDS011;48140;45.486;9.226;2022-12-24T12:02:12;45.47;;;21.02;;
62153;SDS011;48140;45.486;9.226;2022-12-24T12:04:59;44.97;;;22.13;;
62153;SDS011;48140;45.486;9.226;2022-12-24T12:07:57;45.85;;;22.73;;
62153;SDS011;48140;45.486;9.226;2022-12-24T12:10:35;48.72;;;21.15;;
62153;SDS011;48140;45.486;9.226;2022-12-24T12:13:04;44.45;;;22.83;;
62153;SDS011;48140;45.486;9.226;2022-12-24T12:15:38;49.20;;;21.63;;
62153;SDS011;48140;45.486;9.226;2022-12-24T12:18:14;48.80;;;22.35;;
62153;SDS011;48140;45.486;9.226;2022-12-24T12:20:45;48.10;;;22.48;;
62153;SDS011;48140;45.486;9.226;2022-12-24T12:23:27;47.90;;;21.02;;
62153;SDS011;48140;45.486;9.226;2022-12-24T12:25:58;41.03;;;21.20;;
62153;SDS011;48140;45.486;9.226;2022-12-24T12:31:40;48.00;;;23.10;;
62153;SDS011;48140;45.486;9.226;2022-12-24T12:44:49;45.90;;;21.10;;
62153;SDS011;48140;45.486;9.226;2022-12-24T12:47:27;55.03;;;23.02;;
62153;SDS011;48140;45.486;9.226;2022-12-24T12:50:06;49.17;;;24.17;;
62153;SDS011;48140;45.486;9.226;2022-12-24T12:53:01;54.80;;;23.75;;
62153;SDS011;48140;45.486;9.226;2022-12-24T13:00:46;54.60;;;24.70;;
62153;SDS011;48140;45.486;9.226;2022-12-24T13:06:12;50.72;;;24.50;;
62153;SDS011;48140;45.486;9.226;2022-12-24T13:20:17;51.83;;;25.33;;
62153;SDS011;48140;45.486;9.226;2022-12-24T13:22:48;57.30;;;25.23;;
62153;SDS011;48140;45.486;9.226;2022-12-24T13:30:49;45.30;;;24.55;;
62153;SDS011;48140;45.486;9.226;2022-12-24T13:33:52;52.47;;;25.80;;
62153;SDS011;48140;45.486;9.226;2022-12-24T13:36:19;56.28;;;26.02;;
62153;SDS011;48140;45.486;9.226;2022-12-24T13:49:24;57.22;;;26.90;;
62153;SDS011;48140;45.486;9.226;2022-12-24T13:51:51;55.53;;;25.95;;
62153;SDS011;48140;45.486;9.226;2022-12-24T13:54:39;55.53;;;25.88;;
62153;SDS011;48140;45.486;9.226;2022-12-24T14:06:06;65.72;;;26.35;;
62153;SDS011;48140;45.486;9.226;2022-12-24T14:08:10;76.40;;;30.45;;
62153;SDS011;48140;45.486;9.226;2022-12-24T14:10:42;84.70;;;35.05;;
62153;SDS011;48140;45.486;9.226;2022-12-24T14:16:08;59.05;;;26.15;;
62153;SDS011;48140;45.486;9.226;2022-12-24T14:18:45;61.47;;;27.00;;
62153;SDS011;48140;45.486;9.226;2022-12-24T14:21:16;52.67;;;26.70;;
62153;SDS011;48140;45.486;9.226;2022-12-24T14:26:27;72.10;;;28.10;;
62153;SDS011;48140;45.486;9.226;2022-12-24T14:29:06;57.60;;;27.45;;
62153;SDS011;48140;45.486;9.226;2022-12-24T14:31:56;53.10;;;25.88;;
62153;SDS011;48140;45.486;9.226;2022-12-24T14:34:23;58.00;;;25.58;;
62153;SDS011;48140;45.486;9.226;2022-12-24T14:36:51;58.92;;;25.88;;
62153;SDS011;48140;45.486;9.226;2022-12-24T14:39:41;69.38;;;27.70;;
62153;SDS011;48140;45.486;9.226;2022-12-24T14:47:50;65.70;;;26.55;;
62153;SDS011;48140;45.486;9.226;2022-12-24T14:53:09;52.10;;;26.02;;
62153;SDS011;48140;45.486;9.226;2022-12-24T14:55:43;53.67;;;26.00;;
62153;SDS011;48140;45.486;9.226;2022-12-24T15:00:55;62.47;;;25.88;;
62153;SDS011;48140;45.486;9.226;2022-12-24T15:05:55;59.65;;;26.10;;
62153;SDS011;48140;45.486;9.226;2022-12-24T15:08:31;53.28;;;24.30;;
62153;SDS011;48140;45.486;9.226;2022-12-24T15:11:03;59.60;;;25.73;;
62153;SDS011;48140;45.486;9.226;2022-12-24T15:13:33;54.05;;;26.35;;
62153;SDS011;48140;45.486;9.226;2022-12-24T15:16:08;54.85;;;25.98;;
62153;SDS011;48140;45.486;9.226;2022-12-24T15:18:37;66.10;;;27.65;;
62153;SDS011;48140;45.486;9.226;2022-12-24T15:21:07;63.13;;;27.05;;
62153;SDS011;48140;45.486;9.226;2022-12-24T15:23:58;57.45;;;26.77;;
62153;SDS011;48140;45.486;9.226;2022-12-24T15:26:29;56.90;;;27.98;;
62153;SDS011;48140;45.486;9.226;2022-12-24T15:28:59;61.92;;;27.23;;
62153;SDS011;48140;45.486;9.226;2022-12-24T15:31:26;58.92;;;27.40;;
62153;SDS011;48140;45.486;9.226;2022-12-24T15:33:54;61.33;;;26.88;;
62153;SDS011;48140;45.486;9.226;2022-12-24T15:36:28;68.70;;;27.92;;
62153;SDS011;48140;45.486;9.226;2022-12-24T15:38:55;52.25;;;25.48;;
62153;SDS011;48140;45.486;9.226;2022-12-24T15:41:23;61.97;;;26.67;;
62153;SDS011;48140;45.486;9.226;2022-12-24T15:43:52;58.15;;;26.92;;
62153;SDS011;48140;45.486;9.226;2022-12-24T15:46:23;59.08;;;26.38;;
62153;SDS011;48140;45.486;9.226;2022-12-24T15:48:52;62.55;;;27.50;;
62153;SDS011;48140;45.486;9.226;2022-12-24T15:51:24;54.80;;;27.00;;
62153;SDS011;48140;45.486;9.226;2022-12-24T15:53:55;58.00;;;26.83;;
62153;SDS011;48140;45.486;9.226;2022-12-24T15:56:35;53.22;;;25.45;;
62153;SDS011;48140;45.486;9.226;2022-12-24T15:59:37;58.00;;;25.30;;
62153;SDS011;48140;45.486;9.226;2022-12-24T16:10:43;63.67;;;25.85;;
62153;SDS011;48140;45.486;9.226;2022-12-24T16:13:14;58.83;;;25.52;;
62153;SDS011;48140;45.486;9.226;2022-12-24T16:16:03;59.42;;;25.42;;
62153;SDS011;48140;45.486;9.226;2022-12-24T16:21:06;56.15;;;24.23;;
62153;SDS011;48140;45.486;9.226;2022-12-24T16:26:10;77.90;;;28.75;;
62153;SDS011;48140;45.486;9.226;2022-12-24T16:28:36;64.30;;;27.75;;
62153;SDS011;48140;45.486;9.226;2022-12-24T16:31:02;69.50;;;28.27;;
62153;SDS011;48140;45.486;9.226;2022-12-24T16:33:27;74.40;;;28.60;;
62153;SDS011;48140;45.486;9.226;2022-12-24T16:35:53;65.10;;;29.95;;
62153;SDS011;48140;45.486;9.226;2022-12-24T16:38:20;64.38;;;28.50;;
62153;SDS011;48140;45.486;9.226;2022-12-24T16:40:46;75.03;;;29.23;;
62153;SDS011;48140;45.486;9.226;2022-12-24T16:43:11;66.95;;;27.90;;
62153;SDS011;48140;45.486;9.226;2022-12-24T16:45:58;74.90;;;28.27;;
62153;SDS011;48140;45.486;9.226;2022-12-24T16:48:26;61.90;;;27.77;;
62153;SDS011;48140;45.486;9.226;2022-12-24T16:50:52;64.70;;;28.50;;
62153;SDS011;48140;45.486;9.226;2022-12-24T17:03:40;65.25;;;26.77;;
62153;SDS011;48140;45.486;9.226;2022-12-24T17:06:05;72.22;;;29.58;;
62153;SDS011;48140;45.486;9.226;2022-12-24T17:08:33;64.45;;;28.35;;
62153;SDS011;48140;45.486;9.226;2022-12-24T17:10:58;66.53;;;26.83;;